Time;durP1;ratioP1;P1;durP2;ratioP2;P2;SDS_P1;SDS_P2;PMS_P1;PMS_P2;Temp;Humidity;BMP_temperature;BMP_pressure;BME280_temperature;BME280_humidity;BME280_pressure;Samples;Min_cycle;Max_cycle;Signal;HPM_P1;HPM_P2
2024/04/11 00:00:54;;;;;;;14.05;6.05;;;19.90;68.70;;;;;;5426647;26;20018;-69
2024/04/11 00:03:20;;;;;;;19.75;6.28;;;19.90;68.70;;;;;;5427179;26;20030;-69
2024/04/11 00:05:46;;;;;;;16.88;6.47;;;19.90;68.70;;;;;;5426753;26;20593;-69
2024/04/11 00:08:12;;;;;;;28.15;6.63;;;19.90;68.70;;;;;;5422089;26;20010;-69
2024/04/11 00:10:38;;;;;;;16.65;6.30;;;20.00;68.70;;;;;;5426531;26;20400;-69
2024/04/11 00:13:03;;;;;;;16.05;6.30;;;19.90;68.70;;;;;;5427959;26;20384;-69
2024/04/11 00:15:29;;;;;;;12.10;6.50;;;19.90;68.70;;;;;;5430355;26;20392;-69
2024/04/11 00:17:55;;;;;;;13.73;5.70;;;19.90;68.70;;;;;;5430747;26;20021;-69
2024/04/11 00:20:21;;;;;;;14.10;5.90;;;19.90;68.70;;;;;;5429967;26;20003;-69
2024/04/11 00:22:47;;;;;;;24.13;7.07;;;19.90;68.70;;;;;;5429212;26;20417;-69
2024/04/11 00:25:14;;;;;;;14.65;6.43;;;19.90;68.60;;;;;;5430130;26;20392;-69
2024/04/11 00:27:40;;;;;;;14.25;5.70;;;19.90;68.60;;;;;;5430381;26;20023;-69
2024/04/11 00:30:07;;;;;;;13.90;6.45;;;19.90;68.60;;;;;;5429644;26;20002;-69
2024/04/11 00:32:32;;;;;;;14.38;5.07;;;19.90;68.70;;;;;;5425146;26;20322;-69
2024/04/11 00:35:01;;;;;;;15.13;5.60;;;19.90;68.60;;;;;;5430675;26;20007;-69
2024/04/11 00:37:31;;;;;;;11.70;5.95;;;19.90;68.60;;;;;;5430151;26;20495;-69
2024/04/11 00:39:57;;;;;;;16.42;5.78;;;19.90;68.70;;;;;;5430415;26;21224;-69
2024/04/11 00:42:23;;;;;;;13.98;5.18;;;19.90;68.60;;;;;;5428900;26;20358;-69
2024/04/11 00:44:49;;;;;;;13.57;5.40;;;19.90;68.60;;;;;;5430826;26;20043;-69
2024/04/11 00:47:15;;;;;;;11.32;4.93;;;19.90;68.50;;;;;;5428550;26;20006;-69
2024/04/11 00:49:44;;;;;;;14.75;5.55;;;19.90;68.50;;;;;;5430071;26;20045;-69
2024/04/11 00:52:10;;;;;;;17.08;6.00;;;19.90;68.50;;;;;;5429102;26;20021;-69
2024/04/11 00:54:36;;;;;;;12.45;5.35;;;19.90;68.60;;;;;;5431128;26;20010;-69
2024/04/11 00:57:07;;;;;;;14.02;5.80;;;19.90;68.60;;;;;;5429585;26;20076;-69
2024/04/11 00:59:35;;;;;;;16.08;5.18;;;19.90;68.60;;;;;;5398342;26;20418;-69
2024/04/11 01:02:02;;;;;;;8.50;4.60;;;19.90;68.50;;;;;;5429338;26;20417;-69
2024/04/11 01:04:30;;;;;;;10.63;4.70;;;19.80;68.50;;;;;;5429463;26;20017;-69
2024/04/11 01:07:08;;;;;;;14.75;5.22;;;19.90;69.30;;;;;;5429527;26;20007;-69
2024/04/11 01:09:38;;;;;;;8.80;4.25;;;19.80;68.50;;;;;;5429386;26;20471;-69
2024/04/11 01:12:04;;;;;;;15.02;5.22;;;19.90;68.50;;;;;;5429023;26;20014;-69
2024/04/11 01:14:33;;;;;;;12.45;5.05;;;19.90;68.50;;;;;;5429970;26;20007;-69
2024/04/11 01:16:59;;;;;;;8.75;4.40;;;19.90;68.50;;;;;;5429405;26;20011;-69
2024/04/11 01:19:25;;;;;;;16.98;5.55;;;19.80;68.50;;;;;;5429465;26;20011;-69
2024/04/11 01:21:51;;;;;;;21.55;5.68;;;19.90;68.50;;;;;;5429054;26;20026;-69
2024/04/11 01:24:17;;;;;;;9.27;4.22;;;19.90;68.50;;;;;;5429103;26;20313;-69
2024/04/11 01:26:43;;;;;;;21.25;5.47;;;19.80;68.50;;;;;;5429390;26;20006;-69
2024/04/11 01:29:10;;;;;;;13.88;5.28;;;19.80;68.50;;;;;;5429108;26;20316;-69
2024/04/11 01:31:40;;;;;;;9.32;4.95;;;19.90;68.50;;;;;;5428768;26;20202;-69
2024/04/11 01:34:06;;;;;;;15.82;4.88;;;19.80;68.40;;;;;;5429645;26;20451;-69
2024/04/11 01:36:32;;;;;;;18.55;5.03;;;19.90;68.40;;;;;;5428832;26;20408;-69
2024/04/11 01:38:57;;;;;;;10.55;4.07;;;19.80;68.40;;;;;;5424584;26;20004;-69
2024/04/11 01:41:26;;;;;;;10.13;3.90;;;19.80;68.40;;;;;;5428597;26;20022;-69
2024/04/11 01:43:52;;;;;;;12.80;4.72;;;19.90;68.50;;;;;;5428679;26;20472;-69
2024/04/11 01:46:18;;;;;;;10.95;4.32;;;19.90;68.40;;;;;;5427843;26;20007;-69
2024/04/11 01:48:46;;;;;;;13.15;4.57;;;19.90;68.40;;;;;;5429689;26;20408;-69
2024/04/11 01:51:13;;;;;;;8.05;4.50;;;19.80;68.40;;;;;;5427018;26;20423;-69
2024/04/11 01:53:40;;;;;;;8.30;4.32;;;19.80;68.40;;;;;;5429595;26;20436;-69
2024/04/11 01:56:06;;;;;;;8.15;4.45;;;19.90;68.40;;;;;;5428477;26;20443;-69
2024/04/11 01:58:31;;;;;;;13.07;4.30;;;19.90;68.40;;;;;;5429089;26;20010;-70
2024/04/11 02:01:17;;;;;;;13.35;4.85;;;19.90;68.40;;;;;;5428811;26;20721;-69
2024/04/11 02:03:43;;;;;;;8.90;4.32;;;19.80;68.40;;;;;;5429155;26;20384;-69
2024/04/11 02:06:11;;;;;;;8.35;3.63;;;19.90;68.40;;;;;;5427959;26;20469;-70
2024/04/11 02:08:38;;;;;;;10.10;4.07;;;19.80;68.40;;;;;;5428821;26;20412;-69
2024/04/11 02:11:07;;;;;;;12.65;4.03;;;19.90;68.50;;;;;;5428072;26;20029;-69
2024/04/11 02:13:33;;;;;;;10.15;4.10;;;19.90;68.40;;;;;;5429112;26;20301;-69
2024/04/11 02:15:59;;;;;;;8.70;3.53;;;19.90;68.40;;;;;;5429000;26;20013;-69
2024/04/11 02:18:27;;;;;;;20.30;3.28;;;19.80;68.40;;;;;;5428606;26;20467;-69
2024/04/11 02:20:53;;;;;;;11.70;4.63;;;19.80;68.50;;;;;;5428899;26;20590;-69
2024/04/11 02:23:19;;;;;;;8.25;3.33;;;19.80;68.50;;;;;;5428044;26;20014;-69
2024/04/11 02:25:45;;;;;;;6.90;3.45;;;19.80;68.50;;;;;;5429149;26;20301;-69
2024/04/11 02:28:11;;;;;;;10.05;3.80;;;19.80;68.50;;;;;;5427804;26;20041;-69
2024/04/11 02:30:36;;;;;;;10.20;3.70;;;19.80;68.40;;;;;;5428705;26;20324;-69
2024/04/11 02:33:02;;;;;;;11.73;4.00;;;19.80;68.40;;;;;;5423314;26;20026;-69
2024/04/11 02:35:28;;;;;;;4.65;3.30;;;19.80;68.40;;;;;;5427482;26;20284;-69
2024/04/11 02:37:54;;;;;;;9.27;3.58;;;19.90;68.40;;;;;;5428856;26;20404;-69
2024/04/11 02:40:21;;;;;;;8.68;3.47;;;19.90;68.40;;;;;;5428285;26;20021;-69
2024/04/11 02:42:47;;;;;;;5.65;3.10;;;19.80;68.40;;;;;;5428231;26;20063;-69
2024/04/11 02:45:15;;;;;;;7.85;3.25;;;19.80;68.40;;;;;;5428413;26;20021;-69
2024/04/11 02:47:44;;;;;;;6.63;3.33;;;19.90;68.40;;;;;;5428436;26;20076;-69
2024/04/11 02:50:15;;;;;;;8.52;3.10;;;19.90;68.40;;;;;;5428180;26;20396;-69
2024/04/11 02:52:41;;;;;;;8.98;3.40;;;19.90;68.50;;;;;;5427549;26;20011;-69
2024/04/11 02:55:08;;;;;;;9.30;3.92;;;19.80;68.40;;;;;;5429659;26;20003;-69
2024/04/11 02:57:37;;;;;;;9.07;3.33;;;19.80;68.40;;;;;;5428487;26;20022;-70
2024/04/11 03:00:04;;;;;;;9.13;3.38;;;19.80;68.40;;;;;;5427053;26;20019;-69
2024/04/11 03:02:34;;;;;;;6.70;3.15;;;19.90;68.40;;;;;;5427359;26;20006;-71
2024/04/11 03:05:00;;;;;;;7.53;4.03;;;19.90;68.50;;;;;;5428483;26;20327;-69
2024/04/11 03:07:29;;;;;;;9.15;3.55;;;19.80;68.50;;;;;;5427548;26;20240;-69
2024/04/11 03:09:55;;;;;;;9.38;3.03;;;19.80;68.40;;;;;;5429359;26;20411;-69
2024/04/11 03:12:21;;;;;;;6.55;3.70;;;19.90;68.50;;;;;;5426472;26;21256;-70
2024/04/11 03:14:48;;;;;;;5.22;2.88;;;19.80;68.50;;;;;;5423900;26;20007;-69
2024/04/11 03:17:13;;;;;;;10.45;3.75;;;19.90;68.50;;;;;;5427628;26;20023;-69
2024/04/11 03:19:40;;;;;;;10.43;2.90;;;19.90;68.50;;;;;;5427859;26;20297;-70
2024/04/11 03:22:06;;;;;;;9.95;3.25;;;19.80;68.50;;;;;;5427477;26;20432;-70
2024/04/11 03:24:32;;;;;;;9.98;3.65;;;19.90;68.50;;;;;;5428742;26;20022;-71
2024/04/11 03:27:00;;;;;;;9.10;3.10;;;19.90;68.50;;;;;;5427676;26;20295;-69
2024/04/11 03:29:27;;;;;;;8.45;2.95;;;19.90;68.50;;;;;;5427802;26;20017;-69
2024/04/11 03:31:54;;;;;;;7.35;3.50;;;19.90;68.50;;;;;;5427537;26;20014;-69
2024/04/11 03:34:23;;;;;;;7.55;3.10;;;19.90;68.50;;;;;;5427242;26;20641;-69
2024/04/11 03:36:49;;;;;;;11.43;4.20;;;19.90;68.50;;;;;;5423251;26;20022;-69
2024/04/11 03:39:15;;;;;;;8.27;3.42;;;19.90;68.50;;;;;;5428023;26;20285;-69
2024/04/11 03:41:53;;;;;;;12.43;4.05;;;19.80;68.50;;;;;;5427661;26;20423;-69
2024/04/11 03:44:19;;;;;;;7.28;4.38;;;19.90;68.50;;;;;;5425686;26;20006;-70
2024/04/11 03:46:44;;;;;;;12.50;4.43;;;19.90;68.50;;;;;;5426835;26;20320;-69
2024/04/11 03:49:10;;;;;;;7.45;4.72;;;19.80;68.50;;;;;;5426847;26;20315;-69
2024/04/11 03:51:39;;;;;;;11.00;4.63;;;19.90;68.50;;;;;;5426917;26;20007;-69
2024/04/11 03:54:06;;;;;;;11.40;4.28;;;19.90;68.50;;;;;;5426804;26;20037;-69
2024/04/11 03:56:32;;;;;;;9.55;4.18;;;19.80;68.40;;;;;;5427419;26;20077;-70
2024/04/11 03:58:58;;;;;;;15.00;4.97;;;19.80;68.50;;;;;;5427569;26;20158;-69
2024/04/11 04:01:28;;;;;;;10.98;4.82;;;19.80;68.40;;;;;;5425777;26;20011;-69
2024/04/11 04:04:02;;;;;;;8.48;5.07;;;19.80;68.40;;;;;;5427868;26;20502;-70
2024/04/11 04:06:33;;;;;;;14.90;5.50;;;19.80;68.50;;;;;;5426451;26;20494;-70
2024/04/11 04:09:00;;;;;;;7.97;5.05;;;19.80;68.50;;;;;;5428183;26;20064;-69
2024/04/11 04:11:26;;;;;;;16.60;6.70;;;19.80;68.50;;;;;;5426487;26;20011;-69
2024/04/11 04:13:54;;;;;;;10.18;5.25;;;19.80;68.50;;;;;;5427074;26;20433;-70
2024/04/11 04:16:21;;;;;;;15.68;6.15;;;19.80;68.50;;;;;;5426655;26;20504;-69
2024/04/11 04:18:54;;;;;;;13.32;5.78;;;19.80;68.50;;;;;;5427157;26;20305;-69
2024/04/11 04:21:20;;;;;;;17.05;6.18;;;19.80;68.50;;;;;;5426727;26;20292;-69
2024/04/11 04:23:54;;;;;;;16.88;5.80;;;19.80;68.40;;;;;;5427267;26;20010;-69
2024/04/11 04:26:21;;;;;;;12.32;5.95;;;19.80;68.40;;;;;;5390298;26;20017;-69
2024/04/11 04:28:48;;;;;;;10.68;5.25;;;19.80;68.50;;;;;;5426991;26;20068;-69
2024/04/11 04:31:16;;;;;;;14.82;6.35;;;19.80;68.50;;;;;;5425972;26;20347;-69
2024/04/11 04:33:48;;;;;;;9.70;5.15;;;19.90;68.50;;;;;;5427458;26;20007;-69
2024/04/11 04:36:18;;;;;;;15.65;5.43;;;19.80;68.50;;;;;;5425598;26;20021;-69
2024/04/11 04:38:45;;;;;;;9.93;5.18;;;19.80;68.50;;;;;;5426911;26;20017;-69
2024/04/11 04:41:12;;;;;;;12.82;4.57;;;19.80;68.40;;;;;;5426046;26;20007;-69
2024/04/11 04:43:39;;;;;;;13.75;5.78;;;19.80;68.50;;;;;;5425427;26;20685;-69
2024/04/11 04:46:05;;;;;;;15.70;5.90;;;19.80;68.50;;;;;;5426121;26;20006;-69
2024/04/11 04:48:32;;;;;;;8.82;4.47;;;19.80;68.60;;;;;;5394348;26;20018;-69
2024/04/11 04:51:01;;;;;;;10.23;5.28;;;19.80;68.50;;;;;;5426974;26;20019;-69
2024/04/11 04:53:27;;;;;;;11.80;5.28;;;19.80;68.50;;;;;;5426236;26;20296;-70
2024/04/11 04:55:53;;;;;;;10.30;4.75;;;19.80;68.50;;;;;;5426466;26;20039;-69
2024/04/11 04:58:21;;;;;;;13.60;5.32;;;19.80;68.50;;;;;;5425951;26;20299;-69
2024/04/11 05:00:47;;;;;;;10.20;4.95;;;19.90;68.60;;;;;;5430200;26;20019;-69
2024/04/11 05:03:14;;;;;;;9.55;4.60;;;19.80;68.60;;;;;;5428953;26;20289;-69
2024/04/11 05:05:41;;;;;;;11.70;4.90;;;19.80;68.60;;;;;;5430016;26;20007;-69
2024/04/11 05:08:07;;;;;;;9.20;4.65;;;19.80;68.60;;;;;;5429586;26;20022;-69
2024/04/11 05:10:43;;;;;;;11.63;4.47;;;19.90;68.70;;;;;;5429625;26;20424;-69
2024/04/11 05:13:09;;;;;;;15.60;5.40;;;19.90;68.70;;;;;;5426585;26;20396;-69
2024/04/11 05:15:41;;;;;;;12.43;5.30;;;19.80;68.60;;;;;;5429606;26;20466;-69
2024/04/11 05:18:07;;;;;;;11.70;4.95;;;19.80;68.60;;;;;;5429396;26;20470;-69
2024/04/11 05:20:33;;;;;;;14.85;4.85;;;19.80;68.60;;;;;;5429909;26;20014;-69
2024/04/11 05:23:00;;;;;;;9.82;4.95;;;19.80;68.60;;;;;;5429676;26;20538;-69
2024/04/11 05:25:30;;;;;;;9.55;5.03;;;19.80;68.60;;;;;;5429728;26;20355;-69
2024/04/11 05:27:57;;;;;;;6.97;4.93;;;19.90;68.70;;;;;;5429867;26;20011;-70
2024/04/11 05:30:23;;;;;;;8.80;4.53;;;19.80;68.60;;;;;;5428350;26;20053;-69
2024/04/11 05:32:49;;;;;;;8.15;4.18;;;19.80;68.60;;;;;;5429701;26;20428;-69
2024/04/11 05:35:15;;;;;;;10.40;4.75;;;19.80;68.60;;;;;;5429088;26;20284;-70
2024/04/11 05:37:45;;;;;;;7.25;3.45;;;19.80;68.60;;;;;;5429214;26;20003;-69
2024/04/11 05:40:14;;;;;;;7.15;4.00;;;19.90;68.70;;;;;;5429331;26;20435;-70
2024/04/11 05:42:45;;;;;;;10.02;4.30;;;19.80;68.60;;;;;;5429168;26;20014;-69
2024/04/11 05:45:17;;;;;;;7.68;4.38;;;19.80;68.70;;;;;;5425833;26;20075;-69
2024/04/11 05:47:51;;;;;;;10.65;5.07;;;19.80;68.60;;;;;;5398028;26;20003;-69
2024/04/11 05:50:19;;;;;;;10.55;4.70;;;19.90;68.70;;;;;;5428981;26;20461;-69
2024/04/11 05:52:49;;;;;;;13.55;4.88;;;19.90;68.80;;;;;;5429069;26;20283;-70
2024/04/11 05:55:16;;;;;;;10.05;3.95;;;19.80;68.70;;;;;;5424974;26;20011;-69
2024/04/11 05:57:43;;;;;;;11.25;4.18;;;19.90;68.80;;;;;;5429186;26;20332;-69
2024/04/11 06:00:11;;;;;;;12.75;5.28;;;19.80;68.70;;;;;;5429074;26;20018;-69
2024/04/11 06:02:40;;;;;;;10.23;4.65;;;19.80;68.70;;;;;;5428678;26;20026;-69
2024/04/11 06:05:06;;;;;;;12.88;4.95;;;19.80;68.70;;;;;;5428800;26;20011;-69
2024/04/11 06:07:39;;;;;;;11.85;4.85;;;19.80;68.70;;;;;;5424127;26;20423;-69
2024/04/11 06:10:05;;;;;;;7.57;3.95;;;19.80;68.70;;;;;;5397401;26;20303;-69
2024/04/11 06:12:33;;;;;;;11.90;5.15;;;19.90;68.80;;;;;;5428673;26;20068;-69
2024/04/11 06:14:59;;;;;;;10.48;4.50;;;19.90;68.80;;;;;;5429325;26;20415;-69
2024/04/11 06:17:27;;;;;;;11.15;5.25;;;19.80;68.70;;;;;;5428625;26;20006;-69
2024/04/11 06:19:54;;;;;;;9.73;4.60;;;19.90;68.80;;;;;;5428935;26;20335;-69
2024/04/11 06:22:20;;;;;;;8.95;5.50;;;19.90;68.80;;;;;;5427790;26;20566;-69
2024/04/11 06:24:46;;;;;;;8.68;4.97;;;19.80;68.70;;;;;;5428929;26;20006;-69
2024/04/11 06:27:12;;;;;;;11.18;4.97;;;19.90;68.80;;;;;;5426826;26;20299;-69
2024/04/11 06:29:39;;;;;;;9.43;4.43;;;19.80;68.80;;;;;;5428644;26;20002;-69
2024/04/11 06:32:17;;;;;;;11.52;5.22;;;19.80;68.80;;;;;;5427160;26;20022;-69
2024/04/11 06:34:44;;;;;;;9.43;5.53;;;19.90;68.80;;;;;;5425372;26;20011;-69
2024/04/11 06:37:11;;;;;;;16.17;5.65;;;19.80;68.80;;;;;;5430178;26;20080;-70
2024/04/11 06:39:40;;;;;;;13.55;6.03;;;19.90;68.80;;;;;;5428274;26;20011;-70
2024/04/11 06:42:13;;;;;;;9.15;5.60;;;19.90;68.90;;;;;;5427671;26;20295;-70
2024/04/11 06:44:45;;;;;;;14.48;6.13;;;19.90;68.80;;;;;;5427964;26;20078;-70
2024/04/11 06:47:12;;;;;;;9.43;5.00;;;19.80;68.80;;;;;;5427342;26;20007;-70
2024/04/11 06:49:39;;;;;;;11.57;5.80;;;19.90;68.90;;;;;;5428257;26;20388;-70
2024/04/11 06:52:05;;;;;;;13.40;5.68;;;19.90;68.90;;;;;;5427180;26;20007;-70
2024/04/11 06:54:33;;;;;;;14.57;6.57;;;19.80;68.80;;;;;;5397182;26;20304;-70
2024/04/11 06:57:03;;;;;;;13.85;6.45;;;19.90;68.90;;;;;;5428072;26;20304;-70
2024/04/11 06:59:30;;;;;;;13.18;6.68;;;19.90;68.90;;;;;;5427767;26;20408;-70
2024/04/11 07:01:58;;;;;;;13.43;6.13;;;19.90;68.90;;;;;;5427395;26;20695;-69
2024/04/11 07:04:24;;;;;;;14.05;6.80;;;19.90;69.00;;;;;;5428218;26;20018;-69
2024/04/11 07:06:50;;;;;;;12.25;6.80;;;19.90;69.00;;;;;;5395954;26;20292;-70
2024/04/11 07:09:15;;;;;;;12.52;6.90;;;19.90;69.00;;;;;;5427717;26;20017;-70
2024/04/11 07:11:41;;;;;;;11.88;6.28;;;19.90;69.00;;;;;;5427764;26;20316;-70
2024/04/11 07:14:20;;;;;;;10.98;5.82;;;19.90;69.00;;;;;;5427439;26;20017;-69
2024/04/11 07:16:47;;;;;;;12.88;6.00;;;19.90;69.00;;;;;;5427815;26;20010;-70
2024/04/11 07:19:14;;;;;;;11.90;6.28;;;19.90;69.80;;;;;;5427582;26;20006;-70
2024/04/11 07:21:43;;;;;;;12.85;6.22;;;19.90;69.00;;;;;;5365404;26;20337;-70
2024/04/11 07:24:09;;;;;;;18.20;7.33;;;19.80;69.00;;;;;;5423097;26;20034;-70
2024/04/11 07:26:38;;;;;;;11.15;7.38;;;19.90;69.10;;;;;;5426910;26;20233;-70
2024/04/11 07:29:05;;;;;;;11.13;6.13;;;19.90;69.10;;;;;;5427465;26;20032;-70
2024/04/11 07:31:41;;;;;;;11.35;6.38;;;19.90;69.10;;;;;;5427330;26;20007;-70
2024/04/11 07:34:07;;;;;;;11.30;6.15;;;19.90;69.10;;;;;;5427457;26;20034;-70
2024/04/11 07:36:39;;;;;;;14.82;7.05;;;19.90;69.20;;;;;;5427411;26;20303;-70
2024/04/11 07:39:08;;;;;;;11.02;6.03;;;19.90;69.10;;;;;;5427149;26;20025;-70
2024/04/11 07:41:46;;;;;;;13.88;7.20;;;19.90;69.10;;;;;;5423469;26;20378;-70
2024/04/11 07:44:22;;;;;;;13.32;7.25;;;19.90;69.20;;;;;;5426017;26;20392;-70
2024/04/11 07:46:48;;;;;;;15.60;6.22;;;19.90;69.20;;;;;;5427578;26;20073;-70
2024/04/11 07:49:15;;;;;;;14.55;6.90;;;19.90;69.20;;;;;;5427127;26;20416;-70
2024/04/11 07:51:41;;;;;;;17.48;7.40;;;19.90;69.30;;;;;;5427104;26;20394;-70
2024/04/11 07:54:13;;;;;;;15.23;6.30;;;19.90;69.30;;;;;;5426766;26;20011;-70
2024/04/11 07:56:39;;;;;;;15.73;6.53;;;19.90;69.30;;;;;;5423059;26;20018;-70
2024/04/11 07:59:06;;;;;;;15.18;6.88;;;19.90;69.40;;;;;;5426809;26;20385;-70
2024/04/11 08:01:34;;;;;;;13.07;7.43;;;19.90;69.40;;;;;;5425604;26;20007;-70
2024/04/11 08:04:06;;;;;;;13.85;7.25;;;19.90;69.40;;;;;;5427679;26;20362;-70
2024/04/11 08:06:34;;;;;;;13.68;7.00;;;19.90;69.30;;;;;;5426616;26;20007;-70
2024/04/11 08:09:00;;;;;;;12.65;7.50;;;19.90;69.50;;;;;;5427450;26;20026;-70
2024/04/11 08:11:30;;;;;;;10.80;5.72;;;19.90;69.70;;;;;;5425961;26;20030;-70
2024/04/11 08:14:04;;;;;;;13.32;6.68;;;19.90;69.60;;;;;;5426772;26;20405;-70
2024/04/11 08:16:32;;;;;;;16.83;5.80;;;19.90;69.60;;;;;;5426177;26;20025;-70
2024/04/11 08:19:02;;;;;;;14.95;6.22;;;19.90;69.70;;;;;;5426619;26;20185;-70
2024/04/11 08:21:38;;;;;;;14.13;6.70;;;19.90;69.70;;;;;;5425409;26;20029;-70
2024/04/11 08:24:04;;;;;;;9.30;5.50;;;19.90;69.60;;;;;;5423602;26;20002;-70
2024/04/11 08:26:32;;;;;;;12.73;6.43;;;19.90;69.50;;;;;;5423978;26;20376;-70
2024/04/11 08:29:00;;;;;;;9.52;4.68;;;19.90;69.50;;;;;;5423537;26;20003;-70
2024/04/11 08:31:30;;;;;;;15.57;6.38;;;19.90;69.50;;;;;;5425952;26;20018;-70
2024/04/11 08:33:58;;;;;;;15.38;5.80;;;19.90;69.50;;;;;;5427510;26;20391;-70
2024/04/11 08:36:25;;;;;;;16.85;7.03;;;19.90;69.40;;;;;;5428675;26;20027;-70
2024/04/11 08:38:51;;;;;;;12.82;8.23;;;20.00;69.20;;;;;;5430156;26;20080;-70
2024/04/11 08:41:16;;;;;;;15.18;7.40;;;20.00;68.90;;;;;;5429221;26;20392;-70
2024/04/11 08:43:45;;;;;;;19.13;8.38;;;20.10;68.80;;;;;;5398035;26;20026;-70
2024/04/11 08:46:11;;;;;;;19.40;8.38;;;20.10;68.50;;;;;;5429067;26;20022;-70
2024/04/11 08:48:38;;;;;;;13.50;7.50;;;20.10;68.40;;;;;;5430174;26;20007;-70
2024/04/11 08:51:26;;;;;;;18.25;7.75;;;20.10;68.20;;;;;;5428916;26;20045;-70
2024/04/11 08:53:55;;;;;;;12.07;7.40;;;20.10;68.00;;;;;;5425569;26;20039;-70
2024/04/11 08:56:21;;;;;;;14.98;7.97;;;20.20;67.90;;;;;;5429186;26;20388;-68
2024/04/11 08:58:48;;;;;;;18.55;7.53;;;20.10;68.00;;;;;;5429563;26;20021;-69
2024/04/11 09:01:21;;;;;;;18.45;7.60;;;20.10;68.10;;;;;;5397156;26;20316;-68
2024/04/11 09:03:49;;;;;;;12.13;6.20;;;20.10;68.00;;;;;;5429239;26;20280;-68
2024/04/11 09:06:23;;;;;;;15.00;6.93;;;20.00;67.70;;;;;;5428508;26;20015;-68
2024/04/11 09:08:53;;;;;;;19.60;7.07;;;20.00;67.80;;;;;;5429562;26;20038;-68
2024/04/11 09:11:19;;;;;;;22.38;6.68;;;20.00;67.90;;;;;;5428859;26;20073;-69
2024/04/11 09:13:45;;;;;;;18.95;5.50;;;20.10;68.00;;;;;;5429723;26;20416;-69
2024/04/11 09:16:12;;;;;;;13.85;4.75;;;20.00;67.30;;;;;;5428812;26;20007;-70
2024/04/11 09:18:38;;;;;;;11.70;4.20;;;20.10;67.00;;;;;;5430085;26;20021;-70
2024/04/11 09:21:05;;;;;;;12.15;3.50;;;20.00;67.50;;;;;;5429586;26;20114;-70
2024/04/11 09:23:43;;;;;;;12.23;3.35;;;20.00;67.40;;;;;;5429601;26;20021;-71
2024/04/11 09:26:10;;;;;;;10.73;2.65;;;20.00;66.90;;;;;;5429122;26;20003;-70
2024/04/11 09:28:38;;;;;;;5.00;2.42;;;20.00;66.50;;;;;;5429781;26;20050;-71
2024/04/11 09:31:04;;;;;;;10.93;2.53;;;20.00;66.30;;;;;;5424379;26;20026;-70
2024/04/11 09:33:34;;;;;;;7.00;2.75;;;20.00;66.10;;;;;;5429629;26;20366;-71
2024/04/11 09:36:03;;;;;;;10.02;3.97;;;20.10;66.10;;;;;;5429460;26;20412;-72
2024/04/11 09:38:29;;;;;;;19.75;5.57;;;20.10;66.10;;;;;;5429611;26;20017;-71
2024/04/11 09:40:56;;;;;;;16.95;6.70;;;20.10;66.30;;;;;;5429587;26;19999;-71
2024/04/11 09:43:27;;;;;;;16.08;7.40;;;20.10;66.30;;;;;;5428514;26;20423;-71
2024/04/11 09:46:03;;;;;;;18.80;8.48;;;20.20;66.40;;;;;;5429502;26;20019;-71
2024/04/11 09:48:31;;;;;;;20.80;9.15;;;20.20;66.40;;;;;;5425347;26;20006;-71
2024/04/11 09:50:59;;;;;;;25.85;9.20;;;20.20;66.50;;;;;;5428772;26;20015;-71
2024/04/11 09:53:28;;;;;;;24.75;9.82;;;20.20;66.50;;;;;;5428883;26;20007;-71
2024/04/11 09:55:57;;;;;;;28.10;9.80;;;20.20;66.40;;;;;;5429065;26;20022;-70
2024/04/11 09:58:28;;;;;;;27.83;11.32;;;20.30;66.60;;;;;;5427775;26;20289;-71
2024/04/11 10:01:06;;;;;;;29.80;10.82;;;20.30;66.60;;;;;;5429217;26;20014;-70
2024/04/11 10:03:39;;;;;;;28.65;10.07;;;20.30;66.60;;;;;;5429552;26;20009;-71
2024/04/11 10:06:13;;;;;;;22.45;9.40;;;20.30;66.60;;;;;;5428323;26;20002;-71
2024/04/11 10:08:42;;;;;;;22.98;9.52;;;20.30;66.60;;;;;;5425058;26;20019;-71
2024/04/11 10:11:12;;;;;;;27.13;8.43;;;20.30;66.50;;;;;;5428885;26;20003;-71
2024/04/11 10:13:42;;;;;;;28.23;10.63;;;20.30;66.50;;;;;;5424600;26;20300;-71
2024/04/11 10:16:21;;;;;;;21.92;9.18;;;20.40;66.50;;;;;;5428632;26;20273;-71
2024/04/11 10:19:04;;;;;;;21.60;8.13;;;20.40;66.50;;;;;;5394073;26;20277;-71
2024/04/11 10:21:32;;;;;;;20.58;7.57;;;20.40;66.40;;;;;;5424385;26;20411;-71
2024/04/11 10:23:58;;;;;;;17.02;7.10;;;20.40;66.40;;;;;;5429191;26;20022;-71
2024/04/11 10:26:34;;;;;;;18.75;8.27;;;20.40;66.30;;;;;;5427611;26;20402;-71
2024/04/11 10:29:20;;;;;;;18.95;7.90;;;20.40;66.20;;;;;;5429296;26;20018;-71
2024/04/11 10:32:08;;;;;;;21.02;7.53;;;20.50;66.20;;;;;;5428588;26;20034;-71
2024/04/11 10:34:47;;;;;;;19.13;7.82;;;20.50;66.10;;;;;;5428599;26;20002;-71
2024/04/11 10:37:23;;;;;;;17.80;6.88;;;20.50;66.00;;;;;;5425957;26;20022;-71
2024/04/11 10:39:54;;;;;;;15.82;8.18;;;20.50;66.00;;;;;;5424044;26;20438;-71
2024/04/11 10:42:27;;;;;;;14.98;6.65;;;20.50;66.00;;;;;;5427310;26;20093;-70
2024/04/11 10:44:56;;;;;;;17.90;7.28;;;20.50;66.00;;;;;;5428802;26;20044;-71
2024/04/11 10:47:25;;;;;;;16.15;7.07;;;20.50;66.00;;;;;;5427382;26;20007;-71
2024/04/11 10:49:51;;;;;;;21.48;8.85;;;20.50;65.90;;;;;;5428171;26;20019;-71
2024/04/11 10:52:21;;;;;;;24.27;7.95;;;20.50;65.90;;;;;;5427209;26;20007;-70
2024/04/11 10:54:51;;;;;;;;;;;20.60;66.00;;;;;;5428647;26;20411;-71
2024/04/11 10:57:17;;;;;;;21.75;7.55;;;20.50;65.90;;;;;;5426878;26;19936;-71
2024/04/11 10:59:50;;;;;;;21.95;7.35;;;20.50;66.00;;;;;;5428044;26;20424;-71
2024/04/11 11:02:23;;;;;;;14.93;7.68;;;20.50;66.00;;;;;;5426604;26;20025;-71
2024/04/11 11:04:50;;;;;;;19.23;8.43;;;20.50;65.90;;;;;;5426274;26;20043;-71
2024/04/11 11:07:23;;;;;;;20.42;7.82;;;20.60;66.00;;;;;;5424435;26;20376;-71
2024/04/11 11:09:52;;;;;;;18.15;9.40;;;20.60;65.90;;;;;;5425286;26;20035;-71
2024/04/11 11:12:24;;;;;;;25.50;8.47;;;20.60;65.80;;;;;;5392565;26;20013;-71
2024/04/11 11:14:55;;;;;;;24.58;9.50;;;20.60;65.70;;;;;;5425012;26;20265;-71
2024/04/11 11:17:27;;;;;;;19.85;9.00;;;20.60;65.70;;;;;;5424432;26;20304;-71
2024/04/11 11:19:55;;;;;;;22.85;8.68;;;20.60;66.30;;;;;;5426945;26;20308;-71
2024/04/11 11:22:34;;;;;;;23.30;9.35;;;20.60;65.40;;;;;;5425761;26;20034;-71
2024/04/11 11:25:00;;;;;;;19.45;8.52;;;20.60;65.40;;;;;;5427266;26;20301;-71
2024/04/11 11:27:31;;;;;;;18.67;7.53;;;20.60;65.20;;;;;;5426764;26;20084;-71
2024/04/11 11:29:58;;;;;;;15.30;7.20;;;20.60;65.10;;;;;;5395548;26;20419;-71
2024/04/11 11:32:25;;;;;;;17.92;6.55;;;20.70;64.90;;;;;;5425967;26;20435;-71
2024/04/11 11:34:52;;;;;;;14.93;7.13;;;20.70;64.80;;;;;;5427820;26;20407;-71
2024/04/11 11:37:21;;;;;;;19.35;8.88;;;20.70;64.80;;;;;;5425718;26;20026;-71
2024/04/11 11:39:55;;;;;;;20.35;8.68;;;20.60;65.40;;;;;;5427781;26;20477;-72
2024/04/11 11:42:26;;;;;;;13.95;7.65;;;20.70;65.80;;;;;;5426784;26;20418;-72
2024/04/11 11:47:34;;;;;;;19.33;8.43;;;20.70;65.60;;;;;;5426601;26;20024;-70
2024/04/11 11:50:11;;;;;;;23.92;7.93;;;20.70;65.40;;;;;;5427454;26;19999;-71
2024/04/11 11:52:50;;;;;;;17.15;7.32;;;20.70;65.20;;;;;;5422273;26;20014;-71
2024/04/11 11:55:17;;;;;;;16.65;6.70;;;20.80;65.00;;;;;;5425655;26;20490;-70
2024/04/11 11:57:54;;;;;;;15.23;8.05;;;20.70;64.90;;;;;;5395242;26;20022;-71
2024/04/11 12:00:25;;;;;;;20.80;7.78;;;20.70;64.80;;;;;;5425919;26;20080;-71
2024/04/11 12:02:56;;;;;;;17.95;7.03;;;20.70;65.00;;;;;;5424756;26;20428;-72
2024/04/11 12:05:27;;;;;;;19.02;7.97;;;20.70;65.70;;;;;;5423411;26;20022;-72
2024/04/11 12:07:53;;;;;;;15.45;6.82;;;20.80;65.00;;;;;;5421561;26;20022;-71
2024/04/11 12:10:29;;;;;;;14.70;7.50;;;20.70;64.80;;;;;;5427489;26;20006;-71
2024/04/11 12:13:18;;;;;;;16.90;7.00;;;20.80;64.70;;;;;;5427372;26;20358;-71
2024/04/11 12:15:51;;;;;;;13.93;6.97;;;20.80;64.50;;;;;;5364770;26;20303;-71
2024/04/11 12:18:22;;;;;;;22.30;7.20;;;20.80;64.50;;;;;;5423596;26;20017;-71
2024/04/11 12:20:51;;;;;;;12.20;6.88;;;20.80;64.40;;;;;;5430714;26;20007;-72
2024/04/11 12:23:19;;;;;;;19.40;7.07;;;20.80;64.30;;;;;;5430778;26;20007;-72
2024/04/11 12:25:44;;;;;;;24.40;8.13;;;20.80;65.00;;;;;;5430064;26;20003;-72
2024/04/11 12:28:11;;;;;;;15.68;7.60;;;20.80;64.20;;;;;;5430067;26;20312;-72
2024/04/11 12:30:38;;;;;;;13.40;7.38;;;20.80;64.10;;;;;;5428891;26;20403;-72
2024/04/11 12:33:08;;;;;;;17.73;7.85;;;20.80;64.20;;;;;;5429645;26;20002;-73
2024/04/11 12:35:54;;;;;;;14.93;8.27;;;20.80;64.20;;;;;;5428118;26;20020;-73
2024/04/11 12:38:21;;;;;;;15.55;8.35;;;20.90;64.20;;;;;;5371554;26;20008;-73
2024/04/11 12:40:50;;;;;;;16.20;7.40;;;20.90;64.20;;;;;;5423432;26;20011;-73
2024/04/11 12:43:19;;;;;;;18.25;7.68;;;20.90;64.10;;;;;;5428044;26;20011;-73
2024/04/11 12:45:53;;;;;;;16.42;6.82;;;20.90;64.00;;;;;;5427907;26;20312;-73
2024/04/11 12:48:24;;;;;;;18.88;7.43;;;20.90;64.00;;;;;;5428135;26;20014;-72